Het weer levert geen direct gevaar op.    Er zijn geen waarschuwingen afgegeven.

Onweer radar more information blitzortung!


Regen radar more information rain snow radar


Meteo Sauwerd

Weerstation Alkmaar Centrum

Weerstation Luyksgestel

Website Noardburgum

Weerstation Noordbergum



METAR rapporten vliegvelden

   
EHLW - Leeuwarden Rnlaf, Netherlands
Afstand tot: W 17 km
Gewijzigd: 19-12-2018 03:55
Grotendeels bewolkt  
Grotendeels bewolkt  
   Wind: Zuiden 22.2 km/h
Wind: Zuiden 22.2 km/h
Temperatuur: 5°C
Voelt als: 1°C
Dauwpunt: 2°C
Vochtigheid: 81%
Barometer: 1007 hPa
Bewolking: Grotendeels bewolkt
Zicht: meer dan 10 km
Bewolking: Licht bewolkt 5000 ft,
Gedeeltelijk bewolkt 5500 ft,
Grotendeels bewolkt 6900 ft
EHLW 190255Z AUTO 17012KT 140V200 9999 FEW050 SCT055 BKN069 05/02 Q1007 BLU
EHMA - Awg-1 Sea, Netherlands
Afstand tot: N 31 km
Gewijzigd: 19-12-2018 03:55
Gedeeltelijk bewolkt  
Gedeeltelijk bewolkt  
   Wind: Zuiden 38.9 km/h
Wind: Zuiden 38.9 km/h
Temperatuur: 5°C
Voelt als: -1°C
Dauwpunt: 1°C
Vochtigheid: 76%
Barometer: 1007 hPa
Bewolking: Gedeeltelijk bewolkt
Zicht: meer dan 10 km
Bewolking: Gedeeltelijk bewolkt
EHMA 190255Z AUTO 18021KT 9999 NSC 05/01 Q1007 W///H///
EHGG - Groningen/Eelde, Netherlands
Afstand tot: OZO 40 km
Gewijzigd: 19-12-2018 03:55
Gedeeltelijk bewolkt  
Gedeeltelijk bewolkt  
   Wind: ZZO 16.7 km/h
Wind: ZZO 16.7 km/h
Temperatuur: 5°C
Voelt als: 2°C
Dauwpunt: 1°C
Vochtigheid: 76%
Barometer: 1008 hPa
Bewolking: Gedeeltelijk bewolkt
Zicht: meer dan 10 km
Bewolking: Gedeeltelijk bewolkt
EHGG 190255Z AUTO 16009KT 130V200 9999 NSC 05/01 Q1008
EHVL - Vlieland Island, Netherlands
Afstand tot: W 72 km
Gewijzigd: 19-12-2018 04:07
Light Showers, Regen, Bewolking  
Light Showers, Regen, Bewolking  
   Wind: Zuiden 29.6 km/h
Wind: Zuiden 29.6 km/h
Temperatuur: 5°C
Voelt als: 0°C
Dauwpunt: 3°C
Vochtigheid: 87%
Barometer: 1006 hPa
Bewolking: Bewolking
Zicht: meer dan 10 km
Bewolking: Licht bewolkt 1500 ft,
Grotendeels bewolkt 1700 ft,
Bewolking 4900 ft
EHVL 190307Z AUTO 17016KT 9999 -SHRA FEW015CB BKN017 OVC049 05/03 Q1006 WHT
EHMG - L9-Ff-1 Sea, Netherlands
Afstand tot: WNW 81 km
Gewijzigd: 19-12-2018 03:55
Gedeeltelijk bewolkt  
Gedeeltelijk bewolkt  
   Wind: Zuiden 55.6 km/h
Wind: Zuiden 55.6 km/h
Temperatuur: 7°C
Voelt als: 1°C
Dauwpunt: 3°C
Vochtigheid: 76%
Barometer: 1006 hPa
Bewolking: Gedeeltelijk bewolkt
Zicht: meer dan 10 km
Bewolking: Licht bewolkt 3000 ft,
Gedeeltelijk bewolkt 3700 ft
EHMG 190255Z AUTO 17030KT 9999 FEW030 SCT037 07/03 Q1006 W///H///
EHKD - De Kooy (navy), Netherlands
Afstand tot: WZW 89 km
Gewijzigd: 19-12-2018 04:08
Wat regen mogelijk, Grotendeels bewolkt  
Wat regen mogelijk, Grotendeels bewolkt  
   Wind: Zuiden 22.2 km/h
Wind: Zuiden 22.2 km/h
Temperatuur: 5°C
Voelt als: 1°C
Dauwpunt: 4°C
Vochtigheid: 93%
Barometer: 1006 hPa
Bewolking: Grotendeels bewolkt
Zicht: meer dan 10 km
Bewolking: Licht bewolkt 1500 ft,
Gedeeltelijk bewolkt 2100 ft,
Grotendeels bewolkt 4500 ft
EHKD 190308Z AUTO 17012KT 9999 -RA FEW015CB SCT021 BKN045 05/04 Q1006 WHT

Script ontwikkeld door  Saratoga-weather.org Aangepast voor de template door  Weerstation Leuven

U vindt ons ook hier:

Het Weer Aktueel

UK Metoffice

European Weather Network

Weather Underground

AWEKAS

Citizen Weather Observer Program (CWOP)

HAMweather, WeatherForYou, PWS Weather

Apparatuur in gebruik:

Weerstation
Davis Vantage pro 2

Weerprogramma
Meteobridge

Weercomputer
TP-Link TL-WR703N

Webleverancier
Versio

Davis Vantage pro 2

Meteobridge

TP-Link TL-WR703N

Versio